sensor_id;sensor_type;location;lat;lon;timestamp;P1;P2;P0
65574;PMS5003;52216;54.942;73.394;2023-06-26T00:01:14;10.50;9.00;4.00
65574;PMS5003;52216;54.942;73.394;2023-06-26T00:04:17;10.50;10.00;4.00
65574;PMS5003;52216;54.942;73.394;2023-06-26T00:07:20;8.00;8.00;3.00
65574;PMS5003;52216;54.942;73.394;2023-06-26T00:10:25;14.00;14.00;6.00
65574;PMS5003;52216;54.942;73.394;2023-06-26T00:13:28;13.00;11.67;4.00
65574;PMS5003;52216;54.942;73.394;2023-06-26T00:16:30;9.50;8.50;4.00
65574;PMS5003;52216;54.942;73.394;2023-06-26T00:19:32;14.00;10.75;7.00
65574;PMS5003;52216;54.942;73.394;2023-06-26T00:22:37;18.33;13.33;7.00
65574;PMS5003;52216;54.942;73.394;2023-06-26T00:25:44;16.00;13.25;5.00
65574;PMS5003;52216;54.942;73.394;2023-06-26T00:28:47;18.33;15.67;7.00
65574;PMS5003;52216;54.942;73.394;2023-06-26T00:31:51;22.17;19.00;9.83
65574;PMS5003;52216;54.942;73.394;2023-06-26T00:34:53;19.00;16.75;6.00
65574;PMS5003;52216;54.942;73.394;2023-06-26T00:37:56;15.50;15.50;4.50
65574;PMS5003;52216;54.942;73.394;2023-06-26T00:40:59;15.75;15.00;5.75
65574;PMS5003;52216;54.942;73.394;2023-06-26T00:44:01;18.00;17.00;7.00
65574;PMS5003;52216;54.942;73.394;2023-06-26T00:47:04;17.00;17.00;7.00
65574;PMS5003;52216;54.942;73.394;2023-06-26T00:50:06;17.00;17.00;6.00
65574;PMS5003;52216;54.942;73.394;2023-06-26T00:53:09;11.00;10.00;3.00
65574;PMS5003;52216;54.942;73.394;2023-06-26T00:56:12;7.75;7.75;3.00
65574;PMS5003;52216;54.942;73.394;2023-06-26T00:59:15;7.00;7.00;3.75
65574;PMS5003;52216;54.942;73.394;2023-06-26T01:02:18;7.00;7.00;3.00
65574;PMS5003;52216;54.942;73.394;2023-06-26T01:05:21;6.75;6.75;4.00
65574;PMS5003;52216;54.942;73.394;2023-06-26T01:08:32;9.67;9.67;4.33
65574;PMS5003;52216;54.942;73.394;2023-06-26T01:11:35;5.25;4.75;1.00
65574;PMS5003;52216;54.942;73.394;2023-06-26T01:14:38;7.00;7.00;3.00
65574;PMS5003;52216;54.942;73.394;2023-06-26T01:17:40;8.25;6.00;4.00
65574;PMS5003;52216;54.942;73.394;2023-06-26T01:20:53;11.50;8.50;4.75
65574;PMS5003;52216;54.942;73.394;2023-06-26T01:26:58;14.50;13.00;6.75
65574;PMS5003;52216;54.942;73.394;2023-06-26T01:30:02;11.67;9.67;3.33
65574;PMS5003;52216;54.942;73.394;2023-06-26T01:33:07;12.00;10.25;4.75
65574;PMS5003;52216;54.942;73.394;2023-06-26T01:36:10;13.00;10.00;5.00
65574;PMS5003;52216;54.942;73.394;2023-06-26T01:39:15;11.25;8.25;4.00
65574;PMS5003;52216;54.942;73.394;2023-06-26T01:42:19;11.00;8.00;4.50
65574;PMS5003;52216;54.942;73.394;2023-06-26T01:45:24;9.75;8.00;3.00
65574;PMS5003;52216;54.942;73.394;2023-06-26T01:48:30;9.00;9.00;3.00
65574;PMS5003;52216;54.942;73.394;2023-06-26T01:51:35;8.67;8.00;4.00
65574;PMS5003;52216;54.942;73.394;2023-06-26T01:54:44;8.50;7.75;4.00
65574;PMS5003;52216;54.942;73.394;2023-06-26T01:57:48;10.00;9.25;4.00
65574;PMS5003;52216;54.942;73.394;2023-06-26T02:00:54;11.00;10.00;4.00
65574;PMS5003;52216;54.942;73.394;2023-06-26T02:03:57;11.00;11.00;5.00
65574;PMS5003;52216;54.942;73.394;2023-06-26T02:07:00;15.00;13.67;5.00
65574;PMS5003;52216;54.942;73.394;2023-06-26T02:10:06;14.00;11.25;5.00
65574;PMS5003;52216;54.942;73.394;2023-06-26T02:13:09;16.00;11.25;6.00
65574;PMS5003;52216;54.942;73.394;2023-06-26T02:16:12;17.00;14.00;6.00
65574;PMS5003;52216;54.942;73.394;2023-06-26T02:19:18;14.25;11.25;5.00
65574;PMS5003;52216;54.942;73.394;2023-06-26T02:22:43;10.00;8.00;3.00
65574;PMS5003;52216;54.942;73.394;2023-06-26T02:25:45;13.00;10.25;4.00
65574;PMS5003;52216;54.942;73.394;2023-06-26T02:28:51;11.00;8.00;3.00
65574;PMS5003;52216;54.942;73.394;2023-06-26T02:31:54;9.50;8.00;4.00
65574;PMS5003;52216;54.942;73.394;2023-06-26T02:34:58;14.50;14.50;6.25
65574;PMS5003;52216;54.942;73.394;2023-06-26T02:38:00;12.00;12.00;4.00
65574;PMS5003;52216;54.942;73.394;2023-06-26T02:41:03;10.33;9.00;4.00
65574;PMS5003;52216;54.942;73.394;2023-06-26T02:44:07;6.00;6.00;3.00
65574;PMS5003;52216;54.942;73.394;2023-06-26T02:47:10;3.00;3.00;1.00
65574;PMS5003;52216;54.942;73.394;2023-06-26T02:50:16;7.00;7.00;3.00
65574;PMS5003;52216;54.942;73.394;2023-06-26T02:53:36;9.00;9.00;5.00
65574;PMS5003;52216;54.942;73.394;2023-06-26T02:57:10;8.00;8.00;5.00
65574;PMS5003;52216;54.942;73.394;2023-06-26T03:00:12;15.50;12.50;5.00
65574;PMS5003;52216;54.942;73.394;2023-06-26T03:03:21;11.00;8.00;4.00
65574;PMS5003;52216;54.942;73.394;2023-06-26T03:06:24;14.00;12.00;7.00
65574;PMS5003;52216;54.942;73.394;2023-06-26T03:09:27;10.25;8.25;4.00
65574;PMS5003;52216;54.942;73.394;2023-06-26T03:12:28;11.50;10.00;5.00
65574;PMS5003;52216;54.942;73.394;2023-06-26T03:15:33;17.75;17.00;8.25
65574;PMS5003;52216;54.942;73.394;2023-06-26T03:18:36;14.50;13.50;5.00
65574;PMS5003;52216;54.942;73.394;2023-06-26T03:21:43;8.50;8.50;4.50
65574;PMS5003;52216;54.942;73.394;2023-06-26T03:24:45;8.75;8.25;4.00
65574;PMS5003;52216;54.942;73.394;2023-06-26T03:27:48;12.00;12.00;8.00
65574;PMS5003;52216;54.942;73.394;2023-06-26T03:30:52;10.00;10.00;6.00
65574;PMS5003;52216;54.942;73.394;2023-06-26T03:33:55;12.00;10.67;6.00
65574;PMS5003;52216;54.942;73.394;2023-06-26T03:36:58;10.67;10.67;4.00
65574;PMS5003;52216;54.942;73.394;2023-06-26T03:40:00;8.00;8.00;3.00
65574;PMS5003;52216;54.942;73.394;2023-06-26T03:43:03;6.33;6.33;3.33
65574;PMS5003;52216;54.942;73.394;2023-06-26T03:46:17;7.00;7.00;3.67
65574;PMS5003;52216;54.942;73.394;2023-06-26T03:49:19;6.00;6.00;3.00
65574;PMS5003;52216;54.942;73.394;2023-06-26T03:52:22;4.00;4.00;3.00
65574;PMS5003;52216;54.942;73.394;2023-06-26T03:55:25;4.00;4.00;2.00
65574;PMS5003;52216;54.942;73.394;2023-06-26T03:58:28;4.00;4.00;2.00
65574;PMS5003;52216;54.942;73.394;2023-06-26T04:01:31;3.00;3.00;1.25
65574;PMS5003;52216;54.942;73.394;2023-06-26T04:04:33;4.00;4.00;1.00
65574;PMS5003;52216;54.942;73.394;2023-06-26T04:07:36;6.00;6.00;1.75
65574;PMS5003;52216;54.942;73.394;2023-06-26T04:10:41;4.00;4.00;2.00
65574;PMS5003;52216;54.942;73.394;2023-06-26T04:13:43;4.50;4.50;4.00
65574;PMS5003;52216;54.942;73.394;2023-06-26T04:16:45;4.00;4.00;2.00
65574;PMS5003;52216;54.942;73.394;2023-06-26T04:19:47;2.00;2.00;1.00
65574;PMS5003;52216;54.942;73.394;2023-06-26T04:22:51;3.00;3.00;0.00
65574;PMS5003;52216;54.942;73.394;2023-06-26T04:25:54;1.25;1.25;0.00
65574;PMS5003;52216;54.942;73.394;2023-06-26T04:28:58;3.00;2.00;0.00
65574;PMS5003;52216;54.942;73.394;2023-06-26T04:32:05;6.00;6.00;1.50
65574;PMS5003;52216;54.942;73.394;2023-06-26T04:35:09;5.00;4.00;1.33
65574;PMS5003;52216;54.942;73.394;2023-06-26T04:38:12;6.00;6.00;2.33
65574;PMS5003;52216;54.942;73.394;2023-06-26T04:41:17;1.25;1.25;0.50
65574;PMS5003;52216;54.942;73.394;2023-06-26T04:44:20;4.75;3.25;0.00
65574;PMS5003;52216;54.942;73.394;2023-06-26T04:47:22;6.00;5.00;1.00
65574;PMS5003;52216;54.942;73.394;2023-06-26T04:50:24;4.00;4.00;1.00
65574;PMS5003;52216;54.942;73.394;2023-06-26T04:53:28;1.00;1.00;0.00
65574;PMS5003;52216;54.942;73.394;2023-06-26T04:56:31;5.50;5.50;1.00
65574;PMS5003;52216;54.942;73.394;2023-06-26T04:59:34;3.00;3.00;1.00
65574;PMS5003;52216;54.942;73.394;2023-06-26T05:02:38;5.00;4.00;0.00
65574;PMS5003;52216;54.942;73.394;2023-06-26T05:05:41;1.00;1.00;0.00
65574;PMS5003;52216;54.942;73.394;2023-06-26T05:08:44;2.25;2.25;1.00
65574;PMS5003;52216;54.942;73.394;2023-06-26T05:11:47;2.00;2.00;0.00
65574;PMS5003;52216;54.942;73.394;2023-06-26T05:14:51;4.00;4.00;1.00
65574;PMS5003;52216;54.942;73.394;2023-06-26T05:17:53;4.00;4.00;1.00
65574;PMS5003;52216;54.942;73.394;2023-06-26T05:20:56;2.25;1.50;0.00
65574;PMS5003;52216;54.942;73.394;2023-06-26T05:23:59;2.00;2.00;0.00
65574;PMS5003;52216;54.942;73.394;2023-06-26T05:27:03;1.00;1.00;0.00
65574;PMS5003;52216;54.942;73.394;2023-06-26T05:30:07;1.00;1.00;0.00
65574;PMS5003;52216;54.942;73.394;2023-06-26T05:33:11;0.00;0.00;0.00
65574;PMS5003;52216;54.942;73.394;2023-06-26T05:36:18;2.00;1.00;0.00
65574;PMS5003;52216;54.942;73.394;2023-06-26T05:39:21;2.00;2.00;0.00
65574;PMS5003;52216;54.942;73.394;2023-06-26T05:42:25;1.50;1.00;0.00
65574;PMS5003;52216;54.942;73.394;2023-06-26T05:45:34;0.75;0.75;0.00
65574;PMS5003;52216;54.942;73.394;2023-06-26T05:48:37;0.00;0.00;0.00
65574;PMS5003;52216;54.942;73.394;2023-06-26T05:51:42;1.00;1.00;0.00
65574;PMS5003;52216;54.942;73.394;2023-06-26T05:54:49;1.50;1.50;0.00
65574;PMS5003;52216;54.942;73.394;2023-06-26T05:58:35;2.00;2.00;0.00
65574;PMS5003;52216;54.942;73.394;2023-06-26T06:01:38;1.00;1.00;0.00
65574;PMS5003;52216;54.942;73.394;2023-06-26T06:04:42;3.00;3.00;0.00
65574;PMS5003;52216;54.942;73.394;2023-06-26T06:07:46;2.00;2.00;0.00
65574;PMS5003;52216;54.942;73.394;2023-06-26T06:10:49;2.00;2.00;0.00
65574;PMS5003;52216;54.942;73.394;2023-06-26T06:13:53;1.75;1.75;0.00
65574;PMS5003;52216;54.942;73.394;2023-06-26T06:16:56;2.00;2.00;0.00
65574;PMS5003;52216;54.942;73.394;2023-06-26T06:19:59;2.00;1.00;0.00
65574;PMS5003;52216;54.942;73.394;2023-06-26T06:23:06;1.00;1.00;0.00
65574;PMS5003;52216;54.942;73.394;2023-06-26T06:26:09;1.25;0.00;0.00
65574;PMS5003;52216;54.942;73.394;2023-06-26T06:29:12;2.00;1.00;0.00
65574;PMS5003;52216;54.942;73.394;2023-06-26T06:32:14;2.25;1.25;0.00
65574;PMS5003;52216;54.942;73.394;2023-06-26T06:35:20;0.00;0.00;0.00
65574;PMS5003;52216;54.942;73.394;2023-06-26T06:38:22;2.00;0.00;0.00
65574;PMS5003;52216;54.942;73.394;2023-06-26T06:41:24;0.00;0.00;0.00
65574;PMS5003;52216;54.942;73.394;2023-06-26T06:44:28;0.00;0.00;0.00
65574;PMS5003;52216;54.942;73.394;2023-06-26T06:47:33;0.75;0.00;0.00
65574;PMS5003;52216;54.942;73.394;2023-06-26T06:50:36;0.00;0.00;0.00
65574;PMS5003;52216;54.942;73.394;2023-06-26T06:53:39;0.00;0.00;0.00
65574;PMS5003;52216;54.942;73.394;2023-06-26T06:56:43;2.00;2.00;0.00
65574;PMS5003;52216;54.942;73.394;2023-06-26T06:59:47;2.00;2.00;0.00
65574;PMS5003;52216;54.942;73.394;2023-06-26T07:02:51;1.00;1.00;0.00
65574;PMS5003;52216;54.942;73.394;2023-06-26T07:05:55;1.00;0.00;0.00
65574;PMS5003;52216;54.942;73.394;2023-06-26T07:08:59;2.00;0.25;0.00
65574;PMS5003;52216;54.942;73.394;2023-06-26T07:12:02;0.00;0.00;0.00
65574;PMS5003;52216;54.942;73.394;2023-06-26T07:15:06;0.00;0.00;0.00
65574;PMS5003;52216;54.942;73.394;2023-06-26T07:18:10;0.00;0.00;0.00
65574;PMS5003;52216;54.942;73.394;2023-06-26T07:21:13;3.00;2.00;0.00
65574;PMS5003;52216;54.942;73.394;2023-06-26T07:24:16;0.00;0.00;0.00
65574;PMS5003;52216;54.942;73.394;2023-06-26T07:27:19;0.00;0.00;0.00
65574;PMS5003;52216;54.942;73.394;2023-06-26T07:30:23;0.75;0.75;0.00
65574;PMS5003;52216;54.942;73.394;2023-06-26T07:33:26;0.00;0.00;0.00
65574;PMS5003;52216;54.942;73.394;2023-06-26T07:36:28;0.00;0.00;0.00
65574;PMS5003;52216;54.942;73.394;2023-06-26T07:39:32;3.00;1.00;0.00
65574;PMS5003;52216;54.942;73.394;2023-06-26T07:42:35;4.00;4.00;0.00
65574;PMS5003;52216;54.942;73.394;2023-06-26T07:45:41;4.50;4.25;0.00
65574;PMS5003;52216;54.942;73.394;2023-06-26T07:48:47;4.25;4.25;2.00
65574;PMS5003;52216;54.942;73.394;2023-06-26T07:51:50;4.00;3.25;1.00
65574;PMS5003;52216;54.942;73.394;2023-06-26T07:54:53;6.00;4.00;1.00
65574;PMS5003;52216;54.942;73.394;2023-06-26T07:57:57;3.50;3.00;0.25
65574;PMS5003;52216;54.942;73.394;2023-06-26T08:01:01;3.75;3.75;0.00
65574;PMS5003;52216;54.942;73.394;2023-06-26T08:04:04;5.00;5.00;0.00
65574;PMS5003;52216;54.942;73.394;2023-06-26T08:07:05;5.00;5.00;0.00
65574;PMS5003;52216;54.942;73.394;2023-06-26T08:10:09;3.50;2.50;0.00
65574;PMS5003;52216;54.942;73.394;2023-06-26T08:13:12;1.00;1.00;0.00
65574;PMS5003;52216;54.942;73.394;2023-06-26T08:16:16;0.00;0.00;0.00
65574;PMS5003;52216;54.942;73.394;2023-06-26T08:19:19;4.00;3.00;0.00
65574;PMS5003;52216;54.942;73.394;2023-06-26T08:22:22;2.50;0.75;0.00
65574;PMS5003;52216;54.942;73.394;2023-06-26T08:25:25;0.00;0.00;0.00
65574;PMS5003;52216;54.942;73.394;2023-06-26T08:28:27;0.00;0.00;0.00
65574;PMS5003;52216;54.942;73.394;2023-06-26T08:31:30;0.00;0.00;0.00
65574;PMS5003;52216;54.942;73.394;2023-06-26T08:34:35;1.50;0.00;0.00
65574;PMS5003;52216;54.942;73.394;2023-06-26T08:37:38;4.00;3.00;0.00
65574;PMS5003;52216;54.942;73.394;2023-06-26T08:40:41;5.67;5.67;0.00
65574;PMS5003;52216;54.942;73.394;2023-06-26T08:43:43;5.75;5.75;0.00
65574;PMS5003;52216;54.942;73.394;2023-06-26T08:46:47;3.75;3.75;0.00
65574;PMS5003;52216;54.942;73.394;2023-06-26T08:49:51;0.25;0.25;0.00
65574;PMS5003;52216;54.942;73.394;2023-06-26T08:52:59;1.00;1.00;0.00
65574;PMS5003;52216;54.942;73.394;2023-06-26T08:56:09;7.50;6.50;1.00
65574;PMS5003;52216;54.942;73.394;2023-06-26T08:59:13;9.00;8.25;4.00
65574;PMS5003;52216;54.942;73.394;2023-06-26T09:02:16;8.00;8.00;5.00
65574;PMS5003;52216;54.942;73.394;2023-06-26T09:05:18;14.25;11.00;5.00
65574;PMS5003;52216;54.942;73.394;2023-06-26T09:08:20;13.00;10.00;4.00
65574;PMS5003;52216;54.942;73.394;2023-06-26T09:11:23;10.00;9.00;4.00
65574;PMS5003;52216;54.942;73.394;2023-06-26T09:14:26;9.00;8.00;4.50
65574;PMS5003;52216;54.942;73.394;2023-06-26T09:17:29;7.50;7.00;3.00
65574;PMS5003;52216;54.942;73.394;2023-06-26T09:20:32;9.00;9.00;4.00
65574;PMS5003;52216;54.942;73.394;2023-06-26T09:23:37;9.00;9.00;4.00
65574;PMS5003;52216;54.942;73.394;2023-06-26T09:26:42;11.50;11.50;6.00
65574;PMS5003;52216;54.942;73.394;2023-06-26T09:29:46;10.67;9.33;4.00
65574;PMS5003;52216;54.942;73.394;2023-06-26T09:32:49;8.00;7.67;2.00
65574;PMS5003;52216;54.942;73.394;2023-06-26T09:35:56;5.25;5.25;2.00
65574;PMS5003;52216;54.942;73.394;2023-06-26T09:39:00;6.33;6.33;3.00
65574;PMS5003;52216;54.942;73.394;2023-06-26T09:42:03;4.00;3.00;3.00
65574;PMS5003;52216;54.942;73.394;2023-06-26T09:45:23;4.00;3.00;3.00
65574;PMS5003;52216;54.942;73.394;2023-06-26T09:48:27;5.00;5.00;3.00
65574;PMS5003;52216;54.942;73.394;2023-06-26T09:51:33;7.75;6.00;3.00
65574;PMS5003;52216;54.942;73.394;2023-06-26T09:54:37;5.25;5.00;2.00
65574;PMS5003;52216;54.942;73.394;2023-06-26T09:57:39;6.67;6.33;4.00
65574;PMS5003;52216;54.942;73.394;2023-06-26T10:00:43;5.00;5.00;3.00
65574;PMS5003;52216;54.942;73.394;2023-06-26T10:03:46;4.00;4.00;1.00
65574;PMS5003;52216;54.942;73.394;2023-06-26T10:06:49;4.00;4.00;1.75
65574;PMS5003;52216;54.942;73.394;2023-06-26T10:09:55;7.00;7.00;3.00
65574;PMS5003;52216;54.942;73.394;2023-06-26T10:13:00;6.00;5.00;2.00
65574;PMS5003;52216;54.942;73.394;2023-06-26T10:16:04;5.25;4.00;1.00
65574;PMS5003;52216;54.942;73.394;2023-06-26T10:19:09;4.25;4.25;3.00
65574;PMS5003;52216;54.942;73.394;2023-06-26T10:22:17;5.00;5.00;3.00
65574;PMS5003;52216;54.942;73.394;2023-06-26T10:25:19;7.00;5.00;2.00
65574;PMS5003;52216;54.942;73.394;2023-06-26T10:28:24;5.00;5.00;2.00
65574;PMS5003;52216;54.942;73.394;2023-06-26T10:31:28;4.25;4.25;1.00
65574;PMS5003;52216;54.942;73.394;2023-06-26T10:34:32;7.50;7.00;2.75
65574;PMS5003;52216;54.942;73.394;2023-06-26T10:37:44;5.25;5.25;3.00
65574;PMS5003;52216;54.942;73.394;2023-06-26T10:40:47;3.33;3.00;1.00
65574;PMS5003;52216;54.942;73.394;2023-06-26T10:44:12;5.00;4.00;2.75
65574;PMS5003;52216;54.942;73.394;2023-06-26T10:47:32;4.00;4.00;1.00
65574;PMS5003;52216;54.942;73.394;2023-06-26T10:50:34;5.00;5.00;1.00
65574;PMS5003;52216;54.942;73.394;2023-06-26T10:53:38;4.00;4.00;2.00
65574;PMS5003;52216;54.942;73.394;2023-06-26T10:56:44;4.75;4.75;2.75
65574;PMS5003;52216;54.942;73.394;2023-06-26T10:59:47;3.00;3.00;2.00
65574;PMS5003;52216;54.942;73.394;2023-06-26T11:02:50;5.75;4.75;1.00
65574;PMS5003;52216;54.942;73.394;2023-06-26T11:06:08;5.00;4.00;1.00
65574;PMS5003;52216;54.942;73.394;2023-06-26T11:09:14;4.50;4.00;1.00
65574;PMS5003;52216;54.942;73.394;2023-06-26T11:12:39;3.00;3.00;1.00
65574;PMS5003;52216;54.942;73.394;2023-06-26T11:15:48;4.50;3.50;1.50
65574;PMS5003;52216;54.942;73.394;2023-06-26T11:18:52;5.25;5.00;2.00
65574;PMS5003;52216;54.942;73.394;2023-06-26T11:22:01;4.00;4.00;1.00
65574;PMS5003;52216;54.942;73.394;2023-06-26T11:25:05;5.00;5.00;1.00
65574;PMS5003;52216;54.942;73.394;2023-06-26T11:28:09;5.00;4.00;1.00
65574;PMS5003;52216;54.942;73.394;2023-06-26T11:31:23;2.75;2.50;1.00
65574;PMS5003;52216;54.942;73.394;2023-06-26T11:34:29;5.25;5.25;2.00
65574;PMS5003;52216;54.942;73.394;2023-06-26T11:37:44;3.50;3.50;0.00
65574;PMS5003;52216;54.942;73.394;2023-06-26T11:40:48;3.25;2.25;0.25
65574;PMS5003;52216;54.942;73.394;2023-06-26T11:43:51;3.00;3.00;0.00
65574;PMS5003;52216;54.942;73.394;2023-06-26T11:46:55;4.00;4.00;0.00
65574;PMS5003;52216;54.942;73.394;2023-06-26T11:49:59;4.00;4.00;0.00
65574;PMS5003;52216;54.942;73.394;2023-06-26T11:53:02;3.00;3.00;0.25
65574;PMS5003;52216;54.942;73.394;2023-06-26T11:56:09;1.00;1.00;0.00
65574;PMS5003;52216;54.942;73.394;2023-06-26T11:59:11;2.00;2.00;0.00
65574;PMS5003;52216;54.942;73.394;2023-06-26T12:02:15;2.50;2.00;0.00
65574;PMS5003;52216;54.942;73.394;2023-06-26T12:05:19;3.00;3.00;0.00
65574;PMS5003;52216;54.942;73.394;2023-06-26T12:08:23;1.50;1.50;0.00
65574;PMS5003;52216;54.942;73.394;2023-06-26T12:11:26;3.75;3.50;0.00
65574;PMS5003;52216;54.942;73.394;2023-06-26T12:14:31;2.25;2.00;0.00
65574;PMS5003;52216;54.942;73.394;2023-06-26T12:17:37;4.75;4.00;0.00
65574;PMS5003;52216;54.942;73.394;2023-06-26T12:20:40;3.00;3.00;1.00
65574;PMS5003;52216;54.942;73.394;2023-06-26T12:23:42;5.00;5.00;1.25
65574;PMS5003;52216;54.942;73.394;2023-06-26T12:26:44;4.00;4.00;1.50
65574;PMS5003;52216;54.942;73.394;2023-06-26T12:29:53;4.00;3.00;1.25
65574;PMS5003;52216;54.942;73.394;2023-06-26T12:32:56;2.50;2.00;1.00
65574;PMS5003;52216;54.942;73.394;2023-06-26T12:36:00;4.00;4.00;1.00
65574;PMS5003;52216;54.942;73.394;2023-06-26T12:39:02;3.00;3.00;0.00
65574;PMS5003;52216;54.942;73.394;2023-06-26T12:42:05;2.00;2.00;0.00
65574;PMS5003;52216;54.942;73.394;2023-06-26T12:45:11;6.00;6.00;1.00
65574;PMS5003;52216;54.942;73.394;2023-06-26T12:48:14;4.00;4.00;2.00
65574;PMS5003;52216;54.942;73.394;2023-06-26T12:51:19;4.75;4.75;2.00
65574;PMS5003;52216;54.942;73.394;2023-06-26T12:54:21;4.00;4.00;3.00
65574;PMS5003;52216;54.942;73.394;2023-06-26T12:57:24;5.00;4.00;2.00
65574;PMS5003;52216;54.942;73.394;2023-06-26T13:00:29;4.00;3.00;1.00
65574;PMS5003;52216;54.942;73.394;2023-06-26T13:03:33;9.50;8.50;4.00
65574;PMS5003;52216;54.942;73.394;2023-06-26T13:06:36;9.33;8.33;4.00
65574;PMS5003;52216;54.942;73.394;2023-06-26T13:09:39;9.00;8.00;4.00
65574;PMS5003;52216;54.942;73.394;2023-06-26T13:12:43;7.33;7.00;4.00
65574;PMS5003;52216;54.942;73.394;2023-06-26T13:15:45;5.50;5.00;2.00
65574;PMS5003;52216;54.942;73.394;2023-06-26T13:18:47;5.50;5.50;3.00
65574;PMS5003;52216;54.942;73.394;2023-06-26T13:21:51;6.00;6.00;2.00
65574;PMS5003;52216;54.942;73.394;2023-06-26T13:24:59;4.00;4.00;2.00
65574;PMS5003;52216;54.942;73.394;2023-06-26T13:28:01;3.00;2.00;1.00
65574;PMS5003;52216;54.942;73.394;2023-06-26T13:31:04;6.00;5.00;1.75
65574;PMS5003;52216;54.942;73.394;2023-06-26T13:34:08;5.00;4.00;2.00
65574;PMS5003;52216;54.942;73.394;2023-06-26T13:37:10;4.00;4.00;2.00
65574;PMS5003;52216;54.942;73.394;2023-06-26T13:40:14;2.00;2.00;1.00
65574;PMS5003;52216;54.942;73.394;2023-06-26T13:43:17;1.75;1.75;0.00
65574;PMS5003;52216;54.942;73.394;2023-06-26T13:46:21;2.25;2.25;0.00
65574;PMS5003;52216;54.942;73.394;2023-06-26T13:49:25;4.00;4.00;0.00
65574;PMS5003;52216;54.942;73.394;2023-06-26T13:52:28;3.00;3.00;0.00
65574;PMS5003;52216;54.942;73.394;2023-06-26T13:55:32;4.00;4.00;0.00
65574;PMS5003;52216;54.942;73.394;2023-06-26T13:58:35;4.00;4.00;1.00
65574;PMS5003;52216;54.942;73.394;2023-06-26T14:01:39;3.00;3.00;1.00
65574;PMS5003;52216;54.942;73.394;2023-06-26T14:04:41;5.50;4.00;0.00
65574;PMS5003;52216;54.942;73.394;2023-06-26T14:07:45;4.00;3.25;0.00
65574;PMS5003;52216;54.942;73.394;2023-06-26T14:10:49;4.25;4.25;0.00
65574;PMS5003;52216;54.942;73.394;2023-06-26T14:14:01;5.00;5.00;0.00
65574;PMS5003;52216;54.942;73.394;2023-06-26T14:17:12;4.29;4.29;0.29
65574;PMS5003;52216;54.942;73.394;2023-06-26T14:20:18;5.00;5.00;1.33
65574;PMS5003;52216;54.942;73.394;2023-06-26T14:23:22;7.00;6.00;1.50
65574;PMS5003;52216;54.942;73.394;2023-06-26T14:26:24;5.25;5.25;3.00
65574;PMS5003;52216;54.942;73.394;2023-06-26T14:29:26;4.00;4.00;2.00
65574;PMS5003;52216;54.942;73.394;2023-06-26T14:32:29;4.75;4.75;3.00
65574;PMS5003;52216;54.942;73.394;2023-06-26T14:35:32;5.00;4.00;1.00
65574;PMS5003;52216;54.942;73.394;2023-06-26T14:38:36;3.00;3.00;1.00
65574;PMS5003;52216;54.942;73.394;2023-06-26T14:41:41;5.00;5.00;1.00
65574;PMS5003;52216;54.942;73.394;2023-06-26T14:44:43;7.75;7.50;3.00
65574;PMS5003;52216;54.942;73.394;2023-06-26T14:47:50;9.00;8.00;5.00
65574;PMS5003;52216;54.942;73.394;2023-06-26T14:50:52;9.00;9.00;3.67
65574;PMS5003;52216;54.942;73.394;2023-06-26T14:53:55;6.00;6.00;4.00
65574;PMS5003;52216;54.942;73.394;2023-06-26T14:56:58;7.75;7.50;4.00
65574;PMS5003;52216;54.942;73.394;2023-06-26T15:00:03;4.00;4.00;3.00
65574;PMS5003;52216;54.942;73.394;2023-06-26T15:03:08;5.50;5.50;2.00
65574;PMS5003;52216;54.942;73.394;2023-06-26T15:06:12;7.00;6.00;1.00
65574;PMS5003;52216;54.942;73.394;2023-06-26T15:09:15;5.00;4.00;1.00
65574;PMS5003;52216;54.942;73.394;2023-06-26T15:12:17;6.33;6.00;2.00
65574;PMS5003;52216;54.942;73.394;2023-06-26T15:15:20;6.00;6.00;2.00
65574;PMS5003;52216;54.942;73.394;2023-06-26T15:18:24;7.00;7.00;1.50
65574;PMS5003;52216;54.942;73.394;2023-06-26T15:21:26;7.00;7.00;2.00
65574;PMS5003;52216;54.942;73.394;2023-06-26T15:24:29;5.00;5.00;2.00
65574;PMS5003;52216;54.942;73.394;2023-06-26T15:27:32;4.00;4.00;1.00
65574;PMS5003;52216;54.942;73.394;2023-06-26T15:30:35;5.50;5.50;0.75
65574;PMS5003;52216;54.942;73.394;2023-06-26T15:33:39;4.75;4.75;0.75
65574;PMS5003;52216;54.942;73.394;2023-06-26T15:36:43;1.00;1.00;0.00
65574;PMS5003;52216;54.942;73.394;2023-06-26T15:39:47;0.00;0.00;0.00
65574;PMS5003;52216;54.942;73.394;2023-06-26T15:43:29;3.00;3.00;1.00
65574;PMS5003;52216;54.942;73.394;2023-06-26T15:46:31;5.67;5.00;3.67
65574;PMS5003;52216;54.942;73.394;2023-06-26T15:49:33;5.00;5.00;2.00
65574;PMS5003;52216;54.942;73.394;2023-06-26T15:52:37;2.50;2.50;2.00
65574;PMS5003;52216;54.942;73.394;2023-06-26T15:55:41;4.50;3.00;1.00
65574;PMS5003;52216;54.942;73.394;2023-06-26T15:58:45;5.00;4.00;2.00
65574;PMS5003;52216;54.942;73.394;2023-06-26T16:01:49;6.00;5.00;2.00
65574;PMS5003;52216;54.942;73.394;2023-06-26T16:04:54;5.50;5.00;2.75
65574;PMS5003;52216;54.942;73.394;2023-06-26T16:07:56;6.00;6.00;3.50
65574;PMS5003;52216;54.942;73.394;2023-06-26T16:11:00;7.00;7.00;4.00
65574;PMS5003;52216;54.942;73.394;2023-06-26T16:14:03;7.00;7.00;3.00
65574;PMS5003;52216;54.942;73.394;2023-06-26T16:17:13;5.00;5.00;3.00
65574;PMS5003;52216;54.942;73.394;2023-06-26T16:20:16;7.00;6.00;3.00
65574;PMS5003;52216;54.942;73.394;2023-06-26T16:23:18;6.00;6.00;3.00
65574;PMS5003;52216;54.942;73.394;2023-06-26T16:26:20;6.00;6.00;4.00
65574;PMS5003;52216;54.942;73.394;2023-06-26T16:29:35;6.00;5.67;3.00
65574;PMS5003;52216;54.942;73.394;2023-06-26T16:32:37;6.25;5.75;3.00
65574;PMS5003;52216;54.942;73.394;2023-06-26T16:35:41;6.00;6.00;4.00
65574;PMS5003;52216;54.942;73.394;2023-06-26T16:38:45;6.00;6.00;3.00
65574;PMS5003;52216;54.942;73.394;2023-06-26T16:41:47;7.00;5.50;3.00
65574;PMS5003;52216;54.942;73.394;2023-06-26T16:44:55;5.00;5.00;3.00
65574;PMS5003;52216;54.942;73.394;2023-06-26T16:48:00;5.00;5.00;3.00
65574;PMS5003;52216;54.942;73.394;2023-06-26T16:51:04;6.00;6.00;3.00
65574;PMS5003;52216;54.942;73.394;2023-06-26T16:54:15;5.50;5.50;2.00
65574;PMS5003;52216;54.942;73.394;2023-06-26T16:57:18;4.00;4.00;1.00
65574;PMS5003;52216;54.942;73.394;2023-06-26T17:00:22;5.25;5.25;1.50
65574;PMS5003;52216;54.942;73.394;2023-06-26T17:03:29;3.00;3.00;1.00
65574;PMS5003;52216;54.942;73.394;2023-06-26T17:06:32;5.25;4.00;3.00
65574;PMS5003;52216;54.942;73.394;2023-06-26T17:09:38;5.00;4.25;3.00
65574;PMS5003;52216;54.942;73.394;2023-06-26T17:12:41;6.00;5.00;1.00
65574;PMS5003;52216;54.942;73.394;2023-06-26T17:15:45;4.00;4.00;1.00
65574;PMS5003;52216;54.942;73.394;2023-06-26T17:18:49;3.00;3.00;1.00
65574;PMS5003;52216;54.942;73.394;2023-06-26T17:21:51;3.75;3.25;1.00
65574;PMS5003;52216;54.942;73.394;2023-06-26T17:24:54;4.50;3.00;0.00
65574;PMS5003;52216;54.942;73.394;2023-06-26T17:28:00;4.00;3.00;0.00
65574;PMS5003;52216;54.942;73.394;2023-06-26T17:31:02;3.75;3.75;0.00
65574;PMS5003;52216;54.942;73.394;2023-06-26T17:34:06;4.75;4.75;0.00
65574;PMS5003;52216;54.942;73.394;2023-06-26T17:37:10;4.00;4.00;0.00
65574;PMS5003;52216;54.942;73.394;2023-06-26T17:40:13;4.00;4.00;0.00
65574;PMS5003;52216;54.942;73.394;2023-06-26T17:43:16;4.25;3.25;0.00